Time;durP1;ratioP1;P1;durP2;ratioP2;P2;SDS_P1;SDS_P2;PMS_P1;PMS_P2;Temp;Humidity;BMP_temperature;BMP_pressure;BME280_temperature;BME280_humidity;BME280_pressure;Samples;Min_cycle;Max_cycle;Signal;HPM_P1;HPM_P2
2022/05/03 00:00:16;;;;;;;7.32;4.45;;;;;;;11.62;78.33;100171.84;4470466;32;20104;-67
2022/05/03 00:03:05;;;;;;;6.35;4.47;;;;;;;11.61;78.81;100170.09;4470139;32;20148;-67
2022/05/03 00:05:43;;;;;;;6.57;4.62;;;;;;;11.64;79.05;100174.47;4470218;32;20577;-67
2022/05/03 00:08:23;;;;;;;7.95;4.97;;;;;;;11.44;81.62;100170.41;4470119;32;20167;-67
2022/05/03 00:10:56;;;;;;;7.43;5.57;;;;;;;11.23;84.44;100173.44;4470245;32;20151;-67
2022/05/03 00:13:29;;;;;;;9.77;6.00;;;;;;;11.09;85.16;100172.81;4470115;32;20139;-67
2022/05/03 00:15:57;;;;;;;25.25;14.57;;;;;;;10.98;85.95;100168.59;4470350;32;20088;-67
2022/05/03 00:18:25;;;;;;;46.97;24.63;;;;;;;11.01;83.95;100160.66;4469882;32;20389;-67
2022/05/03 00:20:53;;;;;;;28.77;17.00;;;;;;;10.98;84.69;100162.47;4470123;32;20494;-67
2022/05/03 00:23:22;;;;;;;14.70;8.93;;;;;;;11.08;82.61;100155.28;4470130;32;20081;-67
2022/05/03 00:25:52;;;;;;;11.75;8.50;;;;;;;11.12;81.85;100157.81;4470087;32;20085;-67
2022/05/03 00:28:19;;;;;;;12.73;6.82;;;;;;;11.11;83.32;100152.59;4470023;32;20132;-67
2022/05/03 00:30:49;;;;;;;9.27;6.68;;;;;;;10.97;85.88;100155.47;4469162;32;20088;-67
2022/05/03 00:33:16;;;;;;;8.75;6.12;;;;;;;10.84;86.70;100153.94;4470049;32;20127;-67
2022/05/03 00:35:44;;;;;;;12.00;5.78;;;;;;;10.76;88.84;100154.06;4470095;32;20084;-67
2022/05/03 00:38:11;;;;;;;5.65;4.80;;;;;;;10.69;87.65;100153.28;4469839;32;20175;-68
2022/05/03 00:40:54;;;;;;;7.50;4.10;;;;;;;10.74;86.57;100153.19;4470071;32;20088;-67
2022/05/03 00:43:30;;;;;;;8.35;3.97;;;;;;;10.87;85.21;100160.00;4455473;32;20092;-67
2022/05/03 00:46:10;;;;;;;4.50;3.47;;;;;;;11.05;84.56;100150.06;4469883;32;20416;-67
2022/05/03 00:48:43;;;;;;;6.07;3.50;;;;;;;11.19;82.46;100153.31;4469851;32;20085;-67
2022/05/03 00:51:20;;;;;;;4.10;3.70;;;;;;;11.20;81.70;100150.66;4469749;32;20176;-67
2022/05/03 00:54:16;;;;;;;9.60;4.00;;;;;;;11.18;81.76;100147.19;4470008;32;20072;-67
2022/05/03 00:56:50;;;;;;;4.22;3.30;;;;;;;11.22;81.51;100146.22;4461823;32;20103;-67
2022/05/03 00:59:31;;;;;;;5.95;3.72;;;;;;;11.27;80.83;100145.25;4469755;32;20149;-67
2022/05/03 01:02:06;;;;;;;5.18;3.62;;;;;;;11.20;82.84;100140.12;4469799;32;20180;-67
2022/05/03 01:05:06;;;;;;;7.65;3.87;;;;;;;11.09;84.50;100147.31;4469777;32;20119;-67
2022/05/03 01:07:35;;;;;;;4.65;3.70;;;;;;;10.97;85.24;100156.34;4469939;32;20160;-67
2022/05/03 01:10:04;;;;;;;7.78;4.20;;;;;;;10.90;86.03;100157.34;4469625;32;20128;-67
2022/05/03 01:12:44;;;;;;;8.25;3.85;;;;;;;10.80;87.16;100155.75;4469574;32;20535;-67
2022/05/03 01:15:19;;;;;;;6.93;3.90;;;;;;;10.77;86.84;100151.38;4469458;32;20211;-68
2022/05/03 01:18:10;;;;;;;6.10;4.63;;;;;;;10.75;88.30;100157.59;4469375;32;20114;-68
2022/05/03 01:21:22;;;;;;;7.35;4.28;;;;;;;10.71;89.48;100162.03;4431082;32;20176;-67
2022/05/03 01:24:02;;;;;;;5.60;3.72;;;;;;;10.67;89.02;100156.81;4404336;32;20543;-67
2022/05/03 01:27:04;;;;;;;4.97;4.43;;;;;;;10.91;85.45;100159.06;4462957;32;20131;-68
2022/05/03 01:29:34;;;;;;;7.22;4.35;;;;;;;11.03;83.91;100152.72;4469302;32;20126;-67
2022/05/03 01:32:06;;;;;;;5.97;4.25;;;;;;;11.00;85.42;100158.91;4469158;32;20123;-67
2022/05/03 01:34:34;;;;;;;9.48;4.25;;;;;;;10.96;86.79;100161.66;4469295;32;20512;-67
2022/05/03 01:37:18;;;;;;;5.05;4.03;;;;;;;10.90;86.78;100156.47;4469181;32;20148;-68
2022/05/03 01:40:11;;;;;;;4.80;3.42;;;;;;;10.97;85.53;100163.38;4469205;32;20107;-67
2022/05/03 01:43:15;;;;;;;4.62;3.83;;;;;;;11.07;84.31;100158.81;4471129;32;20638;-67
2022/05/03 01:46:06;;;;;;;7.43;3.70;;;;;;;11.10;83.31;100150.84;4471152;32;20108;-67
2022/05/03 01:51:54;;;;;;;5.50;3.60;;;;;;;11.16;82.15;100156.88;4471239;32;20076;-67
2022/05/03 01:54:40;;;;;;;3.60;3.28;;;;;;;11.19;81.94;100156.81;4471125;32;20092;-67
2022/05/03 01:57:33;;;;;;;8.10;3.30;;;;;;;11.19;82.07;100153.31;4471122;32;20534;-67
2022/05/03 02:00:07;;;;;;;4.45;3.10;;;;;;;11.16;82.35;100153.38;4471086;32;20143;-67
2022/05/03 02:02:59;;;;;;;6.53;3.90;;;;;;;11.13;82.34;100149.03;4471096;32;20072;-67
2022/05/03 02:05:30;;;;;;;6.95;3.95;;;;;;;11.07;86.74;100150.91;4456547;32;20473;-67
2022/05/03 02:07:58;;;;;;;4.37;3.97;;;;;;;10.91;87.52;100152.94;4470965;32;20105;-68
2022/05/03 02:10:32;;;;;;;4.35;3.80;;;;;;;10.81;88.88;100157.47;4470829;32;20479;-67
2022/05/03 02:13:16;;;;;;;8.40;3.90;;;;;;;10.73;89.43;100156.72;4470966;32;20088;-67
2022/05/03 02:15:44;;;;;;;5.50;4.05;;;;;;;10.64;90.92;100156.91;4456601;32;20180;-67
2022/05/03 02:18:46;;;;;;;4.43;3.75;;;;;;;10.59;91.45;100148.19;4470901;32;20595;-68
2022/05/03 02:21:25;;;;;;;4.55;4.07;;;;;;;10.54;90.97;100145.63;4470916;32;20072;-67
2022/05/03 02:24:11;;;;;;;4.07;3.67;;;;;;;10.55;90.87;100151.75;4470950;32;20110;-67
2022/05/03 02:26:47;;;;;;;5.35;4.15;;;;;;;10.50;91.70;100151.84;4470811;32;20089;-67
2022/05/03 02:29:48;;;;;;;3.58;3.10;;;;;;;10.41;90.90;100158.09;4470939;32;20092;-68
2022/05/03 02:32:24;;;;;;;5.60;3.62;;;;;;;10.47;89.77;100155.37;4470980;32;20431;-67
2022/05/03 02:35:20;;;;;;;6.43;3.87;;;;;;;10.65;87.19;100154.22;4470863;32;20085;-67
2022/05/03 02:37:50;;;;;;;5.60;3.47;;;;;;;10.79;84.96;100159.28;4468598;32;20093;-67
2022/05/03 02:40:24;;;;;;;7.55;3.80;;;;;;;10.79;84.60;100148.75;4470864;32;20097;-67
2022/05/03 02:42:52;;;;;;;7.90;4.70;;;;;;;10.83;84.13;100150.41;4470981;32;20076;-67
2022/05/03 02:45:19;;;;;;;6.20;4.30;;;;;;;10.75;86.34;100152.31;4456361;32;20543;-67
2022/05/03 02:48:08;;;;;;;14.65;4.78;;;;;;;10.60;88.71;100149.91;4471052;32;20381;-67
2022/05/03 02:50:39;;;;;;;10.70;4.18;;;;;;;10.45;89.69;100148.41;4470847;32;20873;-67
2022/05/03 02:53:20;;;;;;;7.18;3.92;;;;;;;10.34;89.85;100161.72;4470214;32;20106;-67
2022/05/03 02:55:54;;;;;;;4.93;3.75;;;;;;;10.16;91.97;100157.56;4470942;32;20085;-67
2022/05/03 02:58:51;;;;;;;8.88;4.40;;;;;;;10.00;93.27;100161.28;4470871;32;20093;-67
2022/05/03 03:01:49;;;;;;;8.52;3.90;;;;;;;9.91;94.08;100171.94;4470780;32;20440;-67
2022/05/03 03:04:42;;;;;;;5.40;4.15;;;;;;;9.74;94.34;100169.50;4470664;32;20147;-67
2022/05/03 03:07:16;;;;;;;5.03;4.37;;;;;;;9.69;94.13;100166.06;4470788;32;20114;-67
2022/05/03 03:09:48;;;;;;;5.87;3.80;;;;;;;9.70;93.17;100163.41;4470787;32;20502;-67
2022/05/03 03:12:47;;;;;;;4.85;4.32;;;;;;;9.73;92.64;100163.38;4470803;32;20112;-67
2022/05/03 03:15:18;;;;;;;7.80;4.07;;;;;;;9.79;91.45;100167.72;4470859;32;20088;-67
2022/05/03 03:17:50;;;;;;;6.32;4.57;;;;;;;9.92;89.81;100164.00;4470661;32;20204;-67
2022/05/03 03:20:22;;;;;;;10.18;4.32;;;;;;;9.91;89.64;100159.66;4470859;32;20122;-67
2022/05/03 03:22:50;;;;;;;6.20;4.53;;;;;;;9.86;92.01;100164.09;4470853;32;20461;-67
2022/05/03 03:25:19;;;;;;;14.63;5.10;;;;;;;9.68;94.45;100164.31;4470522;32;20088;-67
2022/05/03 03:27:49;;;;;;;6.35;4.72;;;;;;;9.55;94.80;100161.84;4470633;32;20123;-67
2022/05/03 03:30:21;;;;;;;7.82;4.55;;;;;;;9.40;97.49;100163.75;4470488;32;20467;-67
2022/05/03 03:32:51;;;;;;;6.05;5.15;;;;;;;9.36;97.90;100155.00;4470491;32;20096;-67
2022/05/03 03:35:19;;;;;;;10.35;4.47;;;;;;;9.32;97.39;100162.06;4470510;32;20526;-67
2022/05/03 03:37:50;;;;;;;5.82;5.10;;;;;;;9.25;97.28;100160.38;4470319;32;20144;-67
2022/05/03 03:40:19;;;;;;;13.82;5.43;;;;;;;9.34;97.35;100164.69;4470441;32;20247;-67
2022/05/03 03:42:47;;;;;;;8.50;5.47;;;;;;;9.49;96.39;100168.91;4470549;32;20101;-67
2022/05/03 03:45:17;;;;;;;6.85;4.82;;;;;;;9.58;95.57;100168.81;4470178;32;20085;-67
2022/05/03 03:47:47;;;;;;;7.82;4.62;;;;;;;9.58;95.66;100168.81;4470676;32;20092;-67
2022/05/03 03:50:15;;;;;;;10.85;7.05;;;;;;;9.56;95.04;100168.81;4470854;32;20092;-67
2022/05/03 03:52:44;;;;;;;10.63;6.65;;;;;;;9.54;96.11;100174.97;4470816;32;20187;-67
2022/05/03 03:55:13;;;;;;;10.05;6.32;;;;;;;9.41;98.01;100174.25;4470872;32;20089;-67
2022/05/03 03:57:41;;;;;;;9.23;6.30;;;;;;;9.36;98.41;100168.16;4455559;32;20454;-67
2022/05/03 04:00:14;;;;;;;10.40;6.20;;;;;;;9.31;98.98;100173.47;4470380;32;20108;-67
2022/05/03 04:02:46;;;;;;;8.00;5.70;;;;;;;9.31;98.92;100178.75;4461989;32;20172;-67
2022/05/03 04:05:19;;;;;;;9.68;5.80;;;;;;;9.43;98.97;100176.88;4457910;32;20167;-67
2022/05/03 04:07:47;;;;;;;11.12;6.03;;;;;;;9.51;98.32;100173.28;4470906;32;20136;-67
2022/05/03 04:10:14;;;;;;;9.15;6.07;;;;;;;9.56;96.37;100183.75;4470820;32;20168;-67
2022/05/03 04:12:42;;;;;;;9.70;5.97;;;;;;;9.61;97.49;100174.06;4470638;32;20139;-67
2022/05/03 04:15:10;;;;;;;7.15;5.37;;;;;;;9.67;96.14;100178.34;4459697;32;20172;-67
2022/05/03 04:17:42;;;;;;;5.97;4.70;;;;;;;9.74;97.25;100180.91;4453847;32;20486;-67
2022/05/03 04:20:11;;;;;;;9.27;5.40;;;;;;;9.82;96.23;100181.69;4460935;32;20104;-67
2022/05/03 04:22:39;;;;;;;17.60;5.80;;;;;;;9.90;96.60;100175.47;4461759;32;20479;-68
2022/05/03 04:25:06;;;;;;;4.90;4.40;;;;;;;9.97;96.90;100177.13;4467297;32;20085;-67
2022/05/03 04:27:34;;;;;;;5.47;4.62;;;;;;;10.05;94.95;100173.50;4470119;32;20107;-67
2022/05/03 04:30:02;;;;;;;5.37;3.97;;;;;;;10.19;92.72;100177.72;4470001;32;20523;-67
2022/05/03 04:32:31;;;;;;;6.07;4.35;;;;;;;10.34;90.70;100172.25;4469568;32;20561;-67
2022/05/03 04:34:59;;;;;;;6.15;4.20;;;;;;;10.49;88.78;100176.44;4469795;32;20131;-67
2022/05/03 04:37:26;;;;;;;10.98;5.53;;;;;;;10.68;88.16;100182.31;4469890;32;20123;-67
2022/05/03 04:39:53;;;;;;;12.02;5.95;;;;;;;10.85;89.42;100188.19;4469658;32;20358;-67
2022/05/03 04:42:21;;;;;;;10.68;5.93;;;;;;;11.00;88.80;100195.81;4469818;32;20940;-67
2022/05/03 04:44:48;;;;;;;11.30;6.37;;;;;;;11.17;88.64;100195.56;4469656;32;20414;-67
2022/05/03 04:47:15;;;;;;;8.30;6.10;;;;;;;11.24;87.70;100201.59;4465537;32;20755;-67
2022/05/03 04:49:42;;;;;;;6.78;5.82;;;;;;;11.17;88.27;100206.09;4461502;32;20550;-67
2022/05/03 04:52:10;;;;;;;12.48;6.40;;;;;;;11.15;87.78;100209.66;4468152;32;20192;-67
2022/05/03 04:54:37;;;;;;;11.95;7.18;;;;;;;11.23;88.06;100205.09;4469477;32;20491;-67
2022/05/03 04:57:06;;;;;;;10.88;7.00;;;;;;;11.36;87.75;100209.28;4469428;32;20387;-67
2022/05/03 04:59:35;;;;;;;13.88;7.15;;;;;;;11.58;87.39;100211.50;4463486;32;20433;-67
2022/05/03 05:02:02;;;;;;;16.30;6.82;;;;;;;11.72;86.31;100217.41;4455794;32;20100;-67
2022/05/03 05:04:30;;;;;;;11.40;6.87;;;;;;;11.83;85.87;100220.69;4455884;32;20187;-67
2022/05/03 05:06:57;;;;;;;13.90;7.47;;;;;;;11.82;85.54;100216.31;4464557;32;20521;-67
2022/05/03 05:09:25;;;;;;;12.37;7.90;;;;;;;11.81;85.63;100211.94;4456484;32;20159;-68
2022/05/03 05:11:52;;;;;;;15.63;7.12;;;;;;;11.93;85.39;100222.28;4457641;32;20179;-68
2022/05/03 05:14:20;;;;;;;8.30;6.65;;;;;;;12.09;82.88;100211.44;4458672;32;20076;-68
2022/05/03 05:16:49;;;;;;;12.45;7.62;;;;;;;12.20;83.08;100209.44;4453796;32;20101;-67
2022/05/03 05:19:17;;;;;;;15.02;8.38;;;;;;;12.32;82.66;100219.72;4454011;32;20116;-68
2022/05/03 05:21:44;;;;;;;16.85;7.55;;;;;;;12.53;82.36;100213.09;4459742;32;20495;-67
2022/05/03 05:24:12;;;;;;;8.82;7.18;;;;;;;12.62;81.00;100217.31;4465656;32;20088;-68
2022/05/03 05:26:41;;;;;;;8.98;7.40;;;;;;;12.69;80.25;100213.63;4461224;32;20156;-67
2022/05/03 05:29:09;;;;;;;12.05;7.25;;;;;;;12.85;79.38;100208.84;4439565;32;20135;-68
2022/05/03 05:31:37;;;;;;;16.37;7.78;;;;;;;12.90;77.92;100210.47;4454054;32;20127;-68
2022/05/03 05:34:04;;;;;;;14.35;8.00;;;;;;;13.06;77.63;100218.03;4466212;32;20123;-68
2022/05/03 05:36:31;;;;;;;12.45;8.00;;;;;;;13.11;76.96;100216.16;4469105;32;21021;-67
2022/05/03 05:38:58;;;;;;;20.48;7.87;;;;;;;13.24;76.97;100216.72;4460697;32;20579;-68
2022/05/03 05:41:26;;;;;;;16.17;7.90;;;;;;;13.25;76.31;100218.44;4469759;32;20092;-68
2022/05/03 05:43:53;;;;;;;16.90;9.75;;;;;;;13.37;76.10;100221.66;4469641;32;20092;-68
2022/05/03 05:46:20;;;;;;;16.02;8.98;;;;;;;13.50;78.11;100210.75;4469126;32;20088;-68
2022/05/03 05:48:48;;;;;;;15.35;8.15;;;;;;;13.50;78.31;100223.97;4469481;32;20120;-67
2022/05/03 05:51:15;;;;;;;14.35;7.72;;;;;;;13.57;78.08;100220.28;4466510;32;20159;-68
2022/05/03 05:53:43;;;;;;;14.73;8.52;;;;;;;13.67;76.93;100219.09;4459503;32;20077;-68
2022/05/03 05:56:11;;;;;;;16.00;9.30;;;;;;;13.73;77.07;100213.66;4466264;32;20681;-68
2022/05/03 05:58:45;;;;;;;11.98;8.23;;;;;;;13.68;77.51;100212.91;4458307;32;20112;-67
2022/05/03 06:01:13;;;;;;;11.65;8.50;;;;;;;13.80;77.07;100217.84;4461746;32;20123;-67
2022/05/03 06:03:42;;;;;;;11.10;9.00;;;;;;;13.90;75.42;100218.47;4461106;32;20080;-67
2022/05/03 06:06:10;;;;;;;15.93;9.13;;;;;;;14.05;75.17;100223.34;4467333;32;20118;-68
2022/05/03 06:08:38;;;;;;;14.50;9.02;;;;;;;14.18;74.51;100218.56;4460115;32;20089;-66
2022/05/03 06:11:05;;;;;;;15.73;8.07;;;;;;;14.32;74.93;100213.72;4455661;32;20210;-68
2022/05/03 06:13:32;;;;;;;10.32;8.27;;;;;;;14.35;74.32;100216.28;4453670;32;20111;-68
2022/05/03 06:16:07;;;;;;;14.07;9.10;;;;;;;14.48;72.72;100214.09;4453479;32;20592;-68
2022/05/03 06:18:36;;;;;;;15.70;8.48;;;;;;;14.53;72.00;100214.03;4451924;32;20756;-68
2022/05/03 06:21:07;;;;;;;19.23;8.82;;;;;;;14.62;70.91;100218.16;4453434;32;20089;-68
2022/05/03 06:23:36;;;;;;;13.32;8.10;;;;;;;14.75;70.58;100212.41;4451952;32;20084;-68
2022/05/03 06:26:09;;;;;;;16.33;7.78;;;;;;;14.92;70.20;100216.31;4453633;32;20084;-68
2022/05/03 06:28:44;;;;;;;10.15;7.60;;;;;;;15.01;69.23;100213.34;4455143;32;20160;-68
2022/05/03 06:31:11;;;;;;;12.90;6.62;;;;;;;15.07;67.92;100218.47;4455916;32;20104;-68
2022/05/03 06:33:39;;;;;;;11.77;7.53;;;;;;;15.22;67.24;100225.91;4455683;32;20142;-68
2022/05/03 06:36:13;;;;;;;15.05;8.25;;;;;;;15.38;67.67;100222.75;4457974;32;20122;-68
2022/05/03 06:38:40;;;;;;;10.75;8.23;;;;;;;15.41;67.92;100222.66;4456081;32;20503;-68
2022/05/03 06:41:08;;;;;;;12.32;8.63;;;;;;;15.54;67.17;100221.28;4459165;32;20105;-67
2022/05/03 06:43:36;;;;;;;10.02;6.05;;;;;;;15.65;63.25;100228.88;4459117;32;20085;-69
2022/05/03 06:46:03;;;;;;;9.07;6.47;;;;;;;15.89;63.72;100227.16;4464531;32;20084;-68
2022/05/03 06:48:30;;;;;;;11.52;7.10;;;;;;;15.98;63.03;100227.72;4463382;32;20124;-68
2022/05/03 06:50:58;;;;;;;7.82;6.05;;;;;;;15.92;61.07;100227.06;4458188;32;20147;-68
2022/05/03 06:53:25;;;;;;;10.60;6.22;;;;;;;15.99;62.24;100218.81;4455563;32;20085;-68
2022/05/03 06:55:52;;;;;;;7.90;6.72;;;;;;;16.00;60.66;100219.66;4455440;32;20088;-68
2022/05/03 06:58:20;;;;;;;9.93;6.97;;;;;;;16.10;60.81;100221.06;4455656;32;20101;-68
2022/05/03 07:00:47;;;;;;;14.73;6.15;;;;;;;16.34;61.21;100218.41;4455607;32;20131;-67
2022/05/03 07:03:14;;;;;;;18.77;5.78;;;;;;;16.51;59.88;100215.97;4455520;32;20149;-67
2022/05/03 07:05:41;;;;;;;10.75;5.82;;;;;;;16.63;58.85;100210.16;4455629;32;20871;-67
2022/05/03 07:08:10;;;;;;;10.13;5.32;;;;;;;16.78;59.07;100218.50;4455466;32;20120;-67
2022/05/03 07:10:39;;;;;;;12.65;5.35;;;;;;;16.98;57.81;100209.72;4455595;32;20105;-67
2022/05/03 07:13:12;;;;;;;13.93;5.57;;;;;;;17.14;57.89;100211.69;4467735;32;20080;-67
2022/05/03 07:15:39;;;;;;;23.87;5.97;;;;;;;17.38;58.38;100208.91;4470929;32;20118;-68
2022/05/03 07:23:38;;;;;;;4.97;3.95;;;;;;;17.88;53.34;100220.06;4457455;32;20145;-67
2022/05/03 07:26:05;;;;;;;9.82;3.72;;;;;;;17.92;52.44;100227.00;4457626;32;20096;-68
2022/05/03 07:28:32;;;;;;;5.78;3.80;;;;;;;17.94;51.30;100221.56;4471247;32;20097;-67
2022/05/03 07:31:00;;;;;;;5.45;4.93;;;;;;;18.04;50.90;100222.88;4445252;32;20117;-67
2022/05/03 07:33:28;;;;;;;7.97;3.75;;;;;;;18.15;51.04;100223.25;4455303;32;20121;-67
2022/05/03 07:36:04;;;;;;;4.53;3.87;;;;;;;18.25;50.79;100222.84;4461397;32;20588;-67
2022/05/03 07:38:31;;;;;;;8.48;3.95;;;;;;;18.34;50.13;100222.44;4467055;32;20100;-67
2022/05/03 07:40:59;;;;;;;16.40;4.90;;;;;;;18.58;51.16;100218.59;4470775;32;20127;-67
2022/05/03 07:43:26;;;;;;;5.70;4.03;;;;;;;18.73;50.52;100213.50;4470542;32;20080;-66
2022/05/03 07:45:54;;;;;;;4.03;3.60;;;;;;;18.97;48.54;100214.09;4467911;32;20130;-67
2022/05/03 07:48:22;;;;;;;6.65;3.45;;;;;;;19.00;49.29;100214.81;4466523;32;20165;-67
2022/05/03 07:50:49;;;;;;;9.45;4.28;;;;;;;19.15;49.23;100210.50;4465886;32;20874;-67
2022/05/03 07:53:17;;;;;;;5.53;3.00;;;;;;;19.54;48.27;100215.66;4454667;32;20142;-67
2022/05/03 07:55:45;;;;;;;11.57;3.85;;;;;;;19.67;47.76;100210.56;4464116;32;20126;-68
2022/05/03 07:58:13;;;;;;;4.03;3.37;;;;;;;19.89;46.89;100212.09;4460173;32;20759;-68
2022/05/03 08:00:41;;;;;;;8.73;3.58;;;;;;;19.91;47.28;100211.06;4454664;32;20170;-67
2022/05/03 08:03:09;;;;;;;5.82;3.45;;;;;;;19.69;47.57;100216.69;4454888;32;20122;-67
2022/05/03 08:05:38;;;;;;;6.07;3.80;;;;;;;19.54;46.41;100217.44;4455060;32;20088;-68
2022/05/03 08:08:06;;;;;;;9.18;5.90;;;;;;;19.54;46.51;100213.00;4469715;32;20096;-67
2022/05/03 08:10:33;;;;;;;5.03;3.10;;;;;;;19.80;45.71;100211.66;4470832;32;20112;-67
2022/05/03 08:13:00;;;;;;;8.45;3.40;;;;;;;19.99;44.82;100224.91;4469358;32;20507;-67
2022/05/03 08:15:27;;;;;;;3.80;3.10;;;;;;;20.01;45.35;100223.00;4468195;32;20203;-67
2022/05/03 08:17:55;;;;;;;6.43;3.05;;;;;;;20.12;44.62;100213.56;4463167;32;20150;-67
2022/05/03 08:20:22;;;;;;;11.60;3.08;;;;;;;20.15;44.04;100222.28;4457180;32;20134;-67
2022/05/03 08:22:49;;;;;;;10.73;3.10;;;;;;;20.05;43.24;100219.22;4461359;32;20731;-68
2022/05/03 08:25:17;;;;;;;5.40;3.00;;;;;;;20.17;44.57;100230.22;4459582;32;20149;-68
2022/05/03 08:27:44;;;;;;;5.07;3.80;;;;;;;20.35;42.96;100217.63;4455075;32;20720;-67
2022/05/03 08:30:12;;;;;;;5.75;3.00;;;;;;;20.37;43.02;100221.97;4454964;32;20105;-67
2022/05/03 08:32:39;;;;;;;3.83;3.10;;;;;;;20.62;42.40;100220.63;4454373;32;20081;-68
2022/05/03 08:35:07;;;;;;;6.40;3.33;;;;;;;20.72;43.11;100224.53;4454240;32;20093;-68
2022/05/03 08:43:07;;;;;;;9.10;3.00;;;;;;;21.21;40.91;100217.22;4456578;32;20092;-67
2022/05/03 08:45:37;;;;;;;5.68;2.60;;;;;;;21.24;41.67;100216.19;4462002;32;20783;-68
2022/05/03 08:48:06;;;;;;;6.22;2.85;;;;;;;21.05;40.98;100216.37;4460338;32;20164;-68
2022/05/03 08:50:34;;;;;;;4.70;2.90;;;;;;;21.16;40.39;100221.09;4453041;32;20097;-68
2022/05/03 08:53:04;;;;;;;3.35;2.30;;;;;;;21.10;40.07;100208.94;4458680;32;20161;-68
2022/05/03 08:55:31;;;;;;;3.90;3.40;;;;;;;21.28;41.56;100217.72;4453828;32;20169;-68
2022/05/03 08:57:59;;;;;;;4.65;2.67;;;;;;;21.68;41.69;100205.50;4456804;32;20151;-68
2022/05/03 09:00:26;;;;;;;4.53;3.00;;;;;;;21.79;38.88;100212.88;4453149;32;20105;-68
2022/05/03 09:02:55;;;;;;;8.50;2.67;;;;;;;21.77;39.16;100214.81;4453024;32;20487;-68
2022/05/03 09:05:24;;;;;;;4.43;3.15;;;;;;;21.58;40.24;100214.19;4458585;32;20108;-68
2022/05/03 09:07:53;;;;;;;3.40;3.10;;;;;;;21.72;39.79;100211.53;4455471;32;20146;-68
2022/05/03 09:10:22;;;;;;;5.50;2.70;;;;;;;21.55;38.86;100209.00;4467785;32;20104;-68
2022/05/03 09:12:50;;;;;;;3.47;2.97;;;;;;;21.43;39.78;100210.63;4468000;32;20541;-68
2022/05/03 09:15:32;;;;;;;4.90;2.95;;;;;;;21.68;39.36;100212.69;4467795;32;20444;-68
2022/05/03 09:18:00;;;;;;;6.72;3.33;;;;;;;21.97;37.99;100216.25;4465764;32;20157;-68
2022/05/03 09:26:23;;;;;;;6.40;3.40;;;;;;;22.39;39.33;100199.31;4463610;32;20491;-68
2022/05/03 09:28:55;;;;;;;12.70;3.28;;;;;;;22.48;39.66;100197.00;4457711;32;20519;-68
2022/05/03 09:31:33;;;;;;;10.32;3.58;;;;;;;22.76;37.92;100196.94;4459706;32;20108;-68
2022/05/03 09:34:03;;;;;;;4.72;3.08;;;;;;;23.19;36.66;100199.50;4466506;32;20417;-68
2022/05/03 09:36:58;;;;;;;13.77;3.53;;;;;;;23.57;36.33;100196.87;4454602;32;20120;-67
2022/05/03 09:39:43;;;;;;;6.97;2.58;;;;;;;23.56;37.21;100194.28;4465096;32;20133;-68
2022/05/03 09:42:16;;;;;;;5.62;2.60;;;;;;;23.97;35.46;100199.50;4462212;32;20161;-67
2022/05/03 09:44:54;;;;;;;5.87;3.15;;;;;;;23.55;35.72;100196.13;4453411;32;20077;-67
2022/05/03 09:47:26;;;;;;;6.32;2.37;;;;;;;23.34;37.44;100192.22;4453894;32;20168;-68
2022/05/03 09:49:53;;;;;;;3.20;2.10;;;;;;;23.55;34.41;100188.06;4454246;32;20172;-67
2022/05/03 09:52:30;;;;;;;7.12;2.40;;;;;;;23.91;33.63;100194.56;4455761;32;20104;-68
2022/05/03 09:55:07;;;;;;;2.25;2.05;;;;;;;24.24;32.65;100199.38;4453921;32;20168;-67
2022/05/03 09:57:44;;;;;;;10.82;2.10;;;;;;;23.91;32.83;100191.00;4456004;32;20163;-68
2022/05/03 10:00:13;;;;;;;6.87;2.75;;;;;;;24.42;31.93;100181.06;4453340;32;20111;-68
2022/05/03 10:02:43;;;;;;;10.32;3.00;;;;;;;24.81;32.20;100176.41;4456893;32;20160;-67
2022/05/03 10:05:13;;;;;;;3.87;2.55;;;;;;;24.68;32.38;100171.06;4464941;32;20149;-68
2022/05/03 10:07:44;;;;;;;4.30;2.55;;;;;;;24.74;31.83;100169.75;4456865;32;20093;-68
2022/05/03 10:10:14;;;;;;;5.93;2.72;;;;;;;25.14;31.54;100178.44;4462762;32;20164;-68
2022/05/03 10:12:46;;;;;;;4.68;2.55;;;;;;;25.41;32.78;100171.91;4470713;32;20183;-67
2022/05/03 10:20:35;;;;;;;4.37;2.53;;;;;;;24.40;31.57;100172.22;4469776;32;20133;-68
2022/05/03 10:21:00;;;;;;;5.47;2.20;;;;;;;25.07;30.75;100165.50;4456778;32;20120;-68
2022/05/03 10:23:30;;;;;;;5.47;2.60;;;;;;;25.53;29.87;100162.84;4455624;32;20115;-68
2022/05/03 10:26:05;;;;;;;10.63;2.95;;;;;;;25.62;30.78;100161.25;4455533;32;20145;-69
2022/05/03 10:29:08;;;;;;;8.10;2.30;;;;;;;25.81;30.61;100152.63;4459677;32;20819;-69
2022/05/03 10:31:54;;;;;;;4.12;2.35;;;;;;;26.63;29.15;100153.22;4376068;32;20541;-69
2022/05/03 10:34:53;;;;;;;2.37;2.17;;;;;;;26.70;27.63;100155.28;4453564;32;20457;-69
2022/05/03 10:37:28;;;;;;;6.43;2.28;;;;;;;27.07;25.70;100157.62;4460969;32;20570;-68
2022/05/03 10:40:01;;;;;;;9.68;2.15;;;;;;;26.57;26.47;100142.91;4461922;32;20087;-69
2022/05/03 10:42:29;;;;;;;9.27;2.03;;;;;;;26.89;26.17;100143.81;4444125;32;20169;-69
2022/05/03 10:45:07;;;;;;;2.08;1.92;;;;;;;27.48;26.10;100139.69;4460193;32;20184;-69
2022/05/03 10:47:44;;;;;;;7.22;2.12;;;;;;;28.24;24.57;100142.13;4459929;32;20097;-69
2022/05/03 10:50:12;;;;;;;6.87;2.47;;;;;;;28.86;24.08;100138.25;4467503;32;20453;-69
2022/05/03 10:52:43;;;;;;;3.85;2.20;;;;;;;29.54;24.06;100127.38;4463013;32;20155;-68
2022/05/03 10:55:15;;;;;;;2.97;2.35;;;;;;;29.95;22.90;100133.44;4460713;32;20114;-69
2022/05/03 10:58:20;;;;;;;5.72;2.95;;;;;;;29.07;23.01;100121.87;4460139;32;20120;-69
2022/05/03 11:01:09;;;;;;;13.23;2.25;;;;;;;29.31;22.29;100132.28;4459547;32;20085;-69
2022/05/03 11:03:36;;;;;;;9.90;2.30;;;;;;;28.30;21.76;100123.44;4461579;32;20151;-69
2022/05/03 11:06:17;;;;;;;7.00;2.08;;;;;;;27.51;23.50;100133.19;4458936;32;20130;-69
2022/05/03 11:09:09;;;;;;;3.20;2.28;;;;;;;27.71;23.08;100126.88;4457359;32;20727;-69
2022/05/03 11:11:40;;;;;;;6.25;2.95;;;;;;;28.24;23.38;100117.72;4455533;32;20155;-68
2022/05/03 11:14:17;;;;;;;2.55;2.40;;;;;;;28.57;23.54;100125.53;4455471;32;20168;-69
2022/05/03 11:16:51;;;;;;;4.07;2.20;;;;;;;29.45;22.44;100112.81;4467243;32;20207;-69
2022/05/03 11:19:21;;;;;;;2.78;2.20;;;;;;;29.26;25.29;100127.31;4465435;32;20704;-68
2022/05/03 11:21:50;;;;;;;4.93;2.03;;;;;;;29.32;24.74;100130.41;4460110;32;20131;-68
2022/05/03 11:24:32;;;;;;;4.57;1.90;;;;;;;28.62;24.93;100111.53;4468442;32;20092;-68
2022/05/03 11:27:02;;;;;;;3.62;2.22;;;;;;;29.16;24.80;100112.03;4468756;32;20830;-68
2022/05/03 11:29:32;;;;;;;22.62;9.48;;;;;;;28.34;24.33;100116.75;4452476;32;20519;-68
2022/05/03 11:32:00;;;;;;;9.48;4.82;;;;;;;26.52;26.81;100102.75;4451662;32;20578;-69
2022/05/03 11:34:28;;;;;;;4.82;3.10;;;;;;;26.67;26.12;100112.28;4451351;32;20096;-68
2022/05/03 11:36:55;;;;;;;3.78;2.70;;;;;;;25.81;27.74;100106.75;4454591;32;20100;-68
2022/05/03 11:39:22;;;;;;;7.22;3.53;;;;;;;25.41;27.68;100107.19;4451550;32;20167;-68
2022/05/03 11:41:49;;;;;;;7.32;3.25;;;;;;;25.18;28.06;100103.56;4466986;32;20139;-69
2022/05/03 11:44:18;;;;;;;5.12;3.20;;;;;;;24.93;28.42;100097.31;4467212;32;20460;-69
2022/05/03 11:46:47;;;;;;;3.47;3.15;;;;;;;24.98;27.98;100096.97;4468693;32;20171;-68
2022/05/03 11:49:16;;;;;;;3.85;2.30;;;;;;;24.61;27.20;100096.22;4457631;32;20503;-69
2022/05/03 11:57:25;;;;;;;2.67;1.67;;;;;;;25.17;26.73;100094.63;4455229;32;20097;-69
2022/05/03 11:59:55;;;;;;;4.28;2.78;;;;;;;25.57;26.32;100096.88;4455297;32;20428;-69
2022/05/03 12:02:30;;;;;;;2.95;1.50;;;;;;;25.69;26.92;100092.34;4455033;32;20081;-69
2022/05/03 12:05:04;;;;;;;3.03;2.72;;;;;;;25.94;25.34;100097.56;4454610;32;20169;-69
2022/05/03 12:07:44;;;;;;;7.15;4.20;;;;;;;26.30;24.89;100086.59;4454819;32;20126;-69
2022/05/03 12:10:26;;;;;;;3.92;2.62;;;;;;;26.21;25.92;100094.44;4455052;32;20134;-69
2022/05/03 12:13:13;;;;;;;6.45;1.92;;;;;;;26.09;25.38;100086.50;4432507;32;652650;-70
2022/05/03 12:15:41;;;;;;;2.00;1.80;;;;;;;26.08;25.42;100093.75;4454293;32;20534;-70
2022/05/03 12:18:09;;;;;;;1.95;1.73;;;;;;;26.07;25.06;100089.28;4454227;32;20108;-70